sensor_id;sensor_type;location;lat;lon;timestamp;P1;durP1;ratioP1;P2;durP2;ratioP2
22963;SDS011;11648;49.306;6.934;2022-11-15T00:01:08;8.40;;;5.67;;
22963;SDS011;11648;49.306;6.934;2022-11-15T00:03:54;8.53;;;5.63;;
22963;SDS011;11648;49.306;6.934;2022-11-15T00:06:39;10.87;;;5.67;;
22963;SDS011;11648;49.306;6.934;2022-11-15T00:09:24;7.77;;;5.40;;
22963;SDS011;11648;49.306;6.934;2022-11-15T00:12:10;9.10;;;5.57;;
22963;SDS011;11648;49.306;6.934;2022-11-15T00:14:55;9.30;;;5.63;;
22963;SDS011;11648;49.306;6.934;2022-11-15T00:17:40;8.40;;;5.40;;
22963;SDS011;11648;49.306;6.934;2022-11-15T00:20:25;7.23;;;5.53;;
22963;SDS011;11648;49.306;6.934;2022-11-15T00:23:11;7.17;;;5.03;;
22963;SDS011;11648;49.306;6.934;2022-11-15T00:25:56;8.10;;;5.60;;
22963;SDS011;11648;49.306;6.934;2022-11-15T00:28:43;6.93;;;5.47;;
22963;SDS011;11648;49.306;6.934;2022-11-15T00:31:29;7.87;;;5.37;;
22963;SDS011;11648;49.306;6.934;2022-11-15T00:34:14;7.07;;;5.13;;
22963;SDS011;11648;49.306;6.934;2022-11-15T00:36:59;8.50;;;5.70;;
22963;SDS011;11648;49.306;6.934;2022-11-15T00:39:45;8.73;;;5.47;;
22963;SDS011;11648;49.306;6.934;2022-11-15T00:42:30;8.03;;;5.17;;
22963;SDS011;11648;49.306;6.934;2022-11-15T00:45:15;7.87;;;4.80;;
22963;SDS011;11648;49.306;6.934;2022-11-15T00:48:01;7.40;;;5.03;;
22963;SDS011;11648;49.306;6.934;2022-11-15T00:50:46;7.10;;;4.93;;
22963;SDS011;11648;49.306;6.934;2022-11-15T00:53:32;7.13;;;4.77;;
22963;SDS011;11648;49.306;6.934;2022-11-15T00:56:18;7.37;;;5.40;;
22963;SDS011;11648;49.306;6.934;2022-11-15T00:59:04;6.93;;;4.87;;
22963;SDS011;11648;49.306;6.934;2022-11-15T01:01:49;9.23;;;5.27;;
22963;SDS011;11648;49.306;6.934;2022-11-15T01:04:34;7.03;;;4.70;;
22963;SDS011;11648;49.306;6.934;2022-11-15T01:07:20;7.47;;;4.93;;
22963;SDS011;11648;49.306;6.934;2022-11-15T01:10:05;8.60;;;5.03;;
22963;SDS011;11648;49.306;6.934;2022-11-15T01:12:51;8.60;;;5.63;;
22963;SDS011;11648;49.306;6.934;2022-11-15T01:15:40;7.97;;;5.60;;
22963;SDS011;11648;49.306;6.934;2022-11-15T01:18:26;9.53;;;5.57;;
22963;SDS011;11648;49.306;6.934;2022-11-15T01:21:12;8.33;;;5.03;;
22963;SDS011;11648;49.306;6.934;2022-11-15T01:24:00;6.80;;;5.00;;
22963;SDS011;11648;49.306;6.934;2022-11-15T01:26:45;8.20;;;5.40;;
22963;SDS011;11648;49.306;6.934;2022-11-15T01:29:31;6.37;;;4.70;;
22963;SDS011;11648;49.306;6.934;2022-11-15T01:32:16;8.83;;;5.30;;
22963;SDS011;11648;49.306;6.934;2022-11-15T01:35:03;8.13;;;5.10;;
22963;SDS011;11648;49.306;6.934;2022-11-15T01:37:48;6.70;;;4.60;;
22963;SDS011;11648;49.306;6.934;2022-11-15T01:40:34;7.73;;;5.30;;
22963;SDS011;11648;49.306;6.934;2022-11-15T01:43:23;7.00;;;5.43;;
22963;SDS011;11648;49.306;6.934;2022-11-15T01:49:11;8.40;;;5.80;;
22963;SDS011;11648;49.306;6.934;2022-11-15T01:51:59;7.20;;;5.00;;
22963;SDS011;11648;49.306;6.934;2022-11-15T01:54:48;8.37;;;5.43;;
22963;SDS011;11648;49.306;6.934;2022-11-15T01:57:38;6.83;;;5.53;;
22963;SDS011;11648;49.306;6.934;2022-11-15T02:00:28;8.53;;;5.47;;
22963;SDS011;11648;49.306;6.934;2022-11-15T02:03:15;8.27;;;5.20;;
22963;SDS011;11648;49.306;6.934;2022-11-15T02:06:01;8.43;;;5.33;;
22963;SDS011;11648;49.306;6.934;2022-11-15T02:08:49;7.00;;;5.43;;
22963;SDS011;11648;49.306;6.934;2022-11-15T02:11:35;8.80;;;5.53;;
22963;SDS011;11648;49.306;6.934;2022-11-15T02:14:21;6.67;;;5.50;;
22963;SDS011;11648;49.306;6.934;2022-11-15T02:23:04;8.53;;;5.40;;
22963;SDS011;11648;49.306;6.934;2022-11-15T02:37:52;9.00;;;6.07;;
22963;SDS011;11648;49.306;6.934;2022-11-15T02:43:47;6.80;;;4.97;;
22963;SDS011;11648;49.306;6.934;2022-11-15T02:46:45;8.10;;;5.90;;
22963;SDS011;11648;49.306;6.934;2022-11-15T02:49:56;8.27;;;6.00;;
22963;SDS011;11648;49.306;6.934;2022-11-15T02:52:46;8.10;;;5.87;;
22963;SDS011;11648;49.306;6.934;2022-11-15T02:55:34;10.97;;;6.40;;
22963;SDS011;11648;49.306;6.934;2022-11-15T03:04:43;8.17;;;6.10;;
22963;SDS011;11648;49.306;6.934;2022-11-15T03:07:35;8.07;;;6.10;;
22963;SDS011;11648;49.306;6.934;2022-11-15T03:14:00;8.23;;;5.80;;
22963;SDS011;11648;49.306;6.934;2022-11-15T03:17:06;8.10;;;5.60;;
22963;SDS011;11648;49.306;6.934;2022-11-15T03:19:59;8.43;;;5.20;;
22963;SDS011;11648;49.306;6.934;2022-11-15T03:22:46;8.53;;;5.73;;
22963;SDS011;11648;49.306;6.934;2022-11-15T03:25:34;7.50;;;5.90;;
22963;SDS011;11648;49.306;6.934;2022-11-15T03:28:32;6.37;;;5.67;;
22963;SDS011;11648;49.306;6.934;2022-11-15T03:31:22;7.70;;;5.53;;
22963;SDS011;11648;49.306;6.934;2022-11-15T03:34:37;7.30;;;5.67;;
22963;SDS011;11648;49.306;6.934;2022-11-15T03:37:44;7.87;;;5.67;;
22963;SDS011;11648;49.306;6.934;2022-11-15T03:40:42;6.70;;;5.50;;
22963;SDS011;11648;49.306;6.934;2022-11-15T03:46:32;6.77;;;5.50;;
22963;SDS011;11648;49.306;6.934;2022-11-15T03:49:27;9.30;;;5.67;;
22963;SDS011;11648;49.306;6.934;2022-11-15T03:52:19;7.23;;;5.30;;
22963;SDS011;11648;49.306;6.934;2022-11-15T03:55:07;7.27;;;5.67;;
22963;SDS011;11648;49.306;6.934;2022-11-15T03:57:56;6.97;;;5.27;;
22963;SDS011;11648;49.306;6.934;2022-11-15T04:00:43;7.23;;;5.17;;
22963;SDS011;11648;49.306;6.934;2022-11-15T04:03:29;9.30;;;5.47;;
22963;SDS011;11648;49.306;6.934;2022-11-15T04:06:15;6.20;;;4.80;;
22963;SDS011;11648;49.306;6.934;2022-11-15T04:09:00;9.50;;;5.90;;
22963;SDS011;11648;49.306;6.934;2022-11-15T04:11:46;9.07;;;5.90;;
22963;SDS011;11648;49.306;6.934;2022-11-15T04:14:31;7.07;;;5.20;;
22963;SDS011;11648;49.306;6.934;2022-11-15T04:17:16;6.80;;;4.63;;
22963;SDS011;11648;49.306;6.934;2022-11-15T04:20:05;7.80;;;5.37;;
22963;SDS011;11648;49.306;6.934;2022-11-15T04:26:21;8.70;;;5.37;;
22963;SDS011;11648;49.306;6.934;2022-11-15T04:29:07;7.57;;;5.27;;
22963;SDS011;11648;49.306;6.934;2022-11-15T04:32:11;9.47;;;5.40;;
22963;SDS011;11648;49.306;6.934;2022-11-15T04:34:56;7.97;;;5.47;;
22963;SDS011;11648;49.306;6.934;2022-11-15T04:37:42;9.03;;;5.77;;
22963;SDS011;11648;49.306;6.934;2022-11-15T04:40:34;7.20;;;5.10;;
22963;SDS011;11648;49.306;6.934;2022-11-15T04:43:20;6.63;;;5.23;;
22963;SDS011;11648;49.306;6.934;2022-11-15T04:46:05;6.87;;;5.50;;
22963;SDS011;11648;49.306;6.934;2022-11-15T04:48:50;6.73;;;5.23;;
22963;SDS011;11648;49.306;6.934;2022-11-15T04:51:42;6.70;;;4.80;;
22963;SDS011;11648;49.306;6.934;2022-11-15T04:54:27;6.73;;;4.57;;
22963;SDS011;11648;49.306;6.934;2022-11-15T04:57:13;5.77;;;5.10;;
22963;SDS011;11648;49.306;6.934;2022-11-15T04:59:59;5.90;;;4.63;;
22963;SDS011;11648;49.306;6.934;2022-11-15T05:02:44;5.53;;;4.77;;
22963;SDS011;11648;49.306;6.934;2022-11-15T05:05:48;6.50;;;5.13;;
22963;SDS011;11648;49.306;6.934;2022-11-15T05:08:34;6.73;;;5.03;;
22963;SDS011;11648;49.306;6.934;2022-11-15T05:11:19;5.53;;;4.70;;
22963;SDS011;11648;49.306;6.934;2022-11-15T05:14:05;5.43;;;4.70;;
22963;SDS011;11648;49.306;6.934;2022-11-15T05:16:50;6.30;;;4.77;;
22963;SDS011;11648;49.306;6.934;2022-11-15T05:19:35;6.50;;;5.17;;
22963;SDS011;11648;49.306;6.934;2022-11-15T05:22:21;5.10;;;4.37;;
22963;SDS011;11648;49.306;6.934;2022-11-15T05:25:07;5.23;;;4.50;;
22963;SDS011;11648;49.306;6.934;2022-11-15T05:27:52;6.43;;;4.47;;
22963;SDS011;11648;49.306;6.934;2022-11-15T05:30:38;6.03;;;4.27;;
22963;SDS011;11648;49.306;6.934;2022-11-15T05:33:23;7.53;;;4.27;;
22963;SDS011;11648;49.306;6.934;2022-11-15T05:39:03;6.07;;;4.50;;
22963;SDS011;11648;49.306;6.934;2022-11-15T05:41:51;5.47;;;4.43;;
22963;SDS011;11648;49.306;6.934;2022-11-15T05:44:40;7.63;;;4.23;;
22963;SDS011;11648;49.306;6.934;2022-11-15T05:47:29;6.07;;;4.53;;
22963;SDS011;11648;49.306;6.934;2022-11-15T05:50:15;5.17;;;3.97;;
22963;SDS011;11648;49.306;6.934;2022-11-15T05:53:03;6.17;;;4.57;;
22963;SDS011;11648;49.306;6.934;2022-11-15T05:55:49;8.33;;;4.33;;
22963;SDS011;11648;49.306;6.934;2022-11-15T05:58:35;5.93;;;3.70;;
22963;SDS011;11648;49.306;6.934;2022-11-15T06:01:22;4.93;;;4.20;;
22963;SDS011;11648;49.306;6.934;2022-11-15T06:04:09;5.70;;;4.07;;
22963;SDS011;11648;49.306;6.934;2022-11-15T06:06:55;5.77;;;4.63;;
22963;SDS011;11648;49.306;6.934;2022-11-15T06:09:40;6.47;;;4.60;;
22963;SDS011;11648;49.306;6.934;2022-11-15T06:12:25;7.07;;;5.10;;
22963;SDS011;11648;49.306;6.934;2022-11-15T06:15:11;7.17;;;5.70;;
22963;SDS011;11648;49.306;6.934;2022-11-15T06:17:56;6.87;;;5.30;;
22963;SDS011;11648;49.306;6.934;2022-11-15T06:20:44;6.07;;;4.93;;
22963;SDS011;11648;49.306;6.934;2022-11-15T06:23:33;6.40;;;5.07;;
22963;SDS011;11648;49.306;6.934;2022-11-15T06:26:19;7.13;;;5.03;;
22963;SDS011;11648;49.306;6.934;2022-11-15T06:29:05;6.47;;;5.10;;
22963;SDS011;11648;49.306;6.934;2022-11-15T06:31:50;6.47;;;5.43;;
22963;SDS011;11648;49.306;6.934;2022-11-15T06:34:35;6.00;;;4.53;;
22963;SDS011;11648;49.306;6.934;2022-11-15T06:37:20;7.37;;;5.43;;
22963;SDS011;11648;49.306;6.934;2022-11-15T06:40:07;6.57;;;4.33;;
22963;SDS011;11648;49.306;6.934;2022-11-15T06:42:59;6.63;;;5.00;;
22963;SDS011;11648;49.306;6.934;2022-11-15T06:45:45;6.70;;;5.20;;
22963;SDS011;11648;49.306;6.934;2022-11-15T06:48:31;8.43;;;5.20;;
22963;SDS011;11648;49.306;6.934;2022-11-15T06:51:17;8.30;;;5.53;;
22963;SDS011;11648;49.306;6.934;2022-11-15T06:54:02;6.90;;;5.57;;
22963;SDS011;11648;49.306;6.934;2022-11-15T06:56:48;9.57;;;5.47;;
22963;SDS011;11648;49.306;6.934;2022-11-15T06:59:33;6.93;;;5.90;;
22963;SDS011;11648;49.306;6.934;2022-11-15T07:02:24;7.40;;;5.70;;
22963;SDS011;11648;49.306;6.934;2022-11-15T07:05:10;6.93;;;5.33;;
22963;SDS011;11648;49.306;6.934;2022-11-15T07:07:56;6.63;;;5.23;;
22963;SDS011;11648;49.306;6.934;2022-11-15T07:10:42;7.00;;;5.27;;
22963;SDS011;11648;49.306;6.934;2022-11-15T07:13:28;10.70;;;5.57;;
22963;SDS011;11648;49.306;6.934;2022-11-15T07:16:15;5.93;;;4.80;;
22963;SDS011;11648;49.306;6.934;2022-11-15T07:19:00;7.10;;;5.17;;
22963;SDS011;11648;49.306;6.934;2022-11-15T07:21:46;6.00;;;4.90;;
22963;SDS011;11648;49.306;6.934;2022-11-15T07:24:31;6.87;;;5.17;;
22963;SDS011;11648;49.306;6.934;2022-11-15T07:27:17;5.90;;;5.20;;
22963;SDS011;11648;49.306;6.934;2022-11-15T07:30:02;6.83;;;5.03;;
22963;SDS011;11648;49.306;6.934;2022-11-15T07:32:59;8.97;;;4.50;;
22963;SDS011;11648;49.306;6.934;2022-11-15T07:35:45;6.47;;;4.60;;
22963;SDS011;11648;49.306;6.934;2022-11-15T07:38:34;5.57;;;4.50;;
22963;SDS011;11648;49.306;6.934;2022-11-15T07:41:26;6.17;;;4.57;;
22963;SDS011;11648;49.306;6.934;2022-11-15T07:44:11;6.57;;;4.50;;
22963;SDS011;11648;49.306;6.934;2022-11-15T07:46:57;5.53;;;4.10;;
22963;SDS011;11648;49.306;6.934;2022-11-15T07:49:43;5.53;;;4.30;;
22963;SDS011;11648;49.306;6.934;2022-11-15T07:52:28;5.90;;;4.73;;
22963;SDS011;11648;49.306;6.934;2022-11-15T07:55:13;5.40;;;4.40;;
22963;SDS011;11648;49.306;6.934;2022-11-15T08:00:47;6.23;;;4.43;;
22963;SDS011;11648;49.306;6.934;2022-11-15T08:03:32;7.23;;;4.70;;
22963;SDS011;11648;49.306;6.934;2022-11-15T08:06:18;7.97;;;5.00;;
22963;SDS011;11648;49.306;6.934;2022-11-15T08:09:04;7.77;;;4.07;;
22963;SDS011;11648;49.306;6.934;2022-11-15T08:11:49;6.20;;;4.73;;
22963;SDS011;11648;49.306;6.934;2022-11-15T08:14:35;6.97;;;4.40;;
22963;SDS011;11648;49.306;6.934;2022-11-15T08:17:20;7.77;;;4.40;;
22963;SDS011;11648;49.306;6.934;2022-11-15T08:20:06;6.30;;;4.50;;
22963;SDS011;11648;49.306;6.934;2022-11-15T08:22:52;6.30;;;4.23;;
22963;SDS011;11648;49.306;6.934;2022-11-15T08:25:37;6.40;;;4.13;;
22963;SDS011;11648;49.306;6.934;2022-11-15T08:28:23;5.83;;;4.23;;
22963;SDS011;11648;49.306;6.934;2022-11-15T08:31:15;6.27;;;4.03;;
22963;SDS011;11648;49.306;6.934;2022-11-15T08:34:03;7.47;;;4.30;;
22963;SDS011;11648;49.306;6.934;2022-11-15T08:36:49;5.73;;;3.87;;
22963;SDS011;11648;49.306;6.934;2022-11-15T08:39:34;5.43;;;4.00;;
22963;SDS011;11648;49.306;6.934;2022-11-15T08:42:20;5.83;;;4.23;;
22963;SDS011;11648;49.306;6.934;2022-11-15T08:45:05;8.10;;;4.10;;
22963;SDS011;11648;49.306;6.934;2022-11-15T08:47:51;4.50;;;3.83;;
22963;SDS011;11648;49.306;6.934;2022-11-15T08:50:38;5.87;;;4.20;;
22963;SDS011;11648;49.306;6.934;2022-11-15T08:53:24;7.20;;;4.23;;
22963;SDS011;11648;49.306;6.934;2022-11-15T08:56:10;6.37;;;3.70;;
22963;SDS011;11648;49.306;6.934;2022-11-15T08:58:57;7.47;;;4.20;;
22963;SDS011;11648;49.306;6.934;2022-11-15T09:01:42;9.90;;;4.20;;
22963;SDS011;11648;49.306;6.934;2022-11-15T09:04:27;5.03;;;3.60;;
22963;SDS011;11648;49.306;6.934;2022-11-15T09:07:12;5.90;;;3.50;;
22963;SDS011;11648;49.306;6.934;2022-11-15T09:09:58;6.20;;;4.10;;
22963;SDS011;11648;49.306;6.934;2022-11-15T09:12:43;6.10;;;3.70;;
22963;SDS011;11648;49.306;6.934;2022-11-15T09:15:29;5.40;;;3.73;;
22963;SDS011;11648;49.306;6.934;2022-11-15T09:18:14;5.73;;;3.70;;
22963;SDS011;11648;49.306;6.934;2022-11-15T09:21:00;4.87;;;3.40;;
22963;SDS011;11648;49.306;6.934;2022-11-15T09:23:49;4.70;;;3.53;;
22963;SDS011;11648;49.306;6.934;2022-11-15T09:26:35;6.23;;;3.43;;
22963;SDS011;11648;49.306;6.934;2022-11-15T09:29:20;4.93;;;3.50;;
22963;SDS011;11648;49.306;6.934;2022-11-15T09:32:06;4.30;;;3.23;;
22963;SDS011;11648;49.306;6.934;2022-11-15T09:34:52;4.03;;;3.03;;
22963;SDS011;11648;49.306;6.934;2022-11-15T09:37:38;4.33;;;2.97;;
22963;SDS011;11648;49.306;6.934;2022-11-15T09:40:23;4.27;;;2.77;;
22963;SDS011;11648;49.306;6.934;2022-11-15T09:46:29;5.47;;;3.10;;
22963;SDS011;11648;49.306;6.934;2022-11-15T09:49:41;6.13;;;2.87;;
22963;SDS011;11648;49.306;6.934;2022-11-15T09:52:15;4.43;;;2.70;;
22963;SDS011;11648;49.306;6.934;2022-11-15T09:54:46;4.70;;;2.50;;
22963;SDS011;11648;49.306;6.934;2022-11-15T09:57:37;4.83;;;2.40;;
22963;SDS011;11648;49.306;6.934;2022-11-15T10:03:10;3.30;;;2.20;;
22963;SDS011;11648;49.306;6.934;2022-11-15T10:05:44;3.23;;;2.27;;
22963;SDS011;11648;49.306;6.934;2022-11-15T10:11:04;4.37;;;2.37;;
22963;SDS011;11648;49.306;6.934;2022-11-15T10:14:02;5.00;;;2.60;;
22963;SDS011;11648;49.306;6.934;2022-11-15T10:19:50;4.93;;;2.67;;
22963;SDS011;11648;49.306;6.934;2022-11-15T10:22:28;4.80;;;2.30;;
22963;SDS011;11648;49.306;6.934;2022-11-15T10:25:20;4.13;;;2.37;;
22963;SDS011;11648;49.306;6.934;2022-11-15T10:27:51;6.00;;;2.33;;
22963;SDS011;11648;49.306;6.934;2022-11-15T10:30:29;3.53;;;2.13;;
22963;SDS011;11648;49.306;6.934;2022-11-15T10:32:58;3.93;;;2.30;;
22963;SDS011;11648;49.306;6.934;2022-11-15T10:35:38;3.90;;;2.10;;
22963;SDS011;11648;49.306;6.934;2022-11-15T10:38:09;4.70;;;2.10;;
22963;SDS011;11648;49.306;6.934;2022-11-15T10:40:38;3.63;;;1.80;;
22963;SDS011;11648;49.306;6.934;2022-11-15T10:45:35;3.67;;;1.90;;
22963;SDS011;11648;49.306;6.934;2022-11-15T10:50:39;3.30;;;1.60;;
22963;SDS011;11648;49.306;6.934;2022-11-15T10:55:46;2.50;;;1.23;;
22963;SDS011;11648;49.306;6.934;2022-11-15T11:01:05;5.13;;;1.57;;
22963;SDS011;11648;49.306;6.934;2022-11-15T11:03:39;5.13;;;1.47;;
22963;SDS011;11648;49.306;6.934;2022-11-15T11:06:15;6.20;;;1.20;;
22963;SDS011;11648;49.306;6.934;2022-11-15T11:08:54;4.73;;;1.40;;
22963;SDS011;11648;49.306;6.934;2022-11-15T11:11:21;4.63;;;1.20;;
22963;SDS011;11648;49.306;6.934;2022-11-15T11:13:48;5.03;;;1.13;;
22963;SDS011;11648;49.306;6.934;2022-11-15T11:27:36;2.10;;;1.00;;
22963;SDS011;11648;49.306;6.934;2022-11-15T11:35:24;2.13;;;0.90;;
22963;SDS011;11648;49.306;6.934;2022-11-15T11:40:52;1.63;;;0.80;;
22963;SDS011;11648;49.306;6.934;2022-11-15T11:49:09;1.93;;;0.80;;
22963;SDS011;11648;49.306;6.934;2022-11-15T11:51:38;2.07;;;0.77;;
22963;SDS011;11648;49.306;6.934;2022-11-15T11:54:20;2.20;;;0.83;;
22963;SDS011;11648;49.306;6.934;2022-11-15T11:56:51;0.90;;;0.60;;
22963;SDS011;11648;49.306;6.934;2022-11-15T12:02:11;2.40;;;0.77;;
22963;SDS011;11648;49.306;6.934;2022-11-15T12:04:45;2.93;;;1.10;;
22963;SDS011;11648;49.306;6.934;2022-11-15T12:07:24;2.43;;;0.77;;
22963;SDS011;11648;49.306;6.934;2022-11-15T12:12:55;1.37;;;0.80;;
22963;SDS011;11648;49.306;6.934;2022-11-15T12:15:30;2.80;;;1.10;;
22963;SDS011;11648;49.306;6.934;2022-11-15T12:18:02;2.70;;;0.90;;
22963;SDS011;11648;49.306;6.934;2022-11-15T12:20:31;1.80;;;0.80;;
22963;SDS011;11648;49.306;6.934;2022-11-15T12:23:10;1.67;;;0.77;;
22963;SDS011;11648;49.306;6.934;2022-11-15T12:31:37;2.17;;;1.00;;
22963;SDS011;11648;49.306;6.934;2022-11-15T12:34:48;3.00;;;0.80;;
22963;SDS011;11648;49.306;6.934;2022-11-15T12:40:18;2.20;;;0.90;;
22963;SDS011;11648;49.306;6.934;2022-11-15T12:45:35;2.20;;;1.10;;
22963;SDS011;11648;49.306;6.934;2022-11-15T13:01:10;3.67;;;1.20;;
22963;SDS011;11648;49.306;6.934;2022-11-15T13:06:41;2.23;;;0.83;;
22963;SDS011;11648;49.306;6.934;2022-11-15T13:09:49;2.83;;;1.00;;
22963;SDS011;11648;49.306;6.934;2022-11-15T13:12:09;3.33;;;0.90;;
22963;SDS011;11648;49.306;6.934;2022-11-15T13:14:50;1.67;;;1.07;;
22963;SDS011;11648;49.306;6.934;2022-11-15T13:17:27;1.80;;;1.00;;
22963;SDS011;11648;49.306;6.934;2022-11-15T13:20:01;2.00;;;1.00;;
22963;SDS011;11648;49.306;6.934;2022-11-15T13:27:50;2.90;;;1.50;;
22963;SDS011;11648;49.306;6.934;2022-11-15T13:30:21;3.23;;;2.20;;
22963;SDS011;11648;49.306;6.934;2022-11-15T13:32:50;1.90;;;1.20;;
22963;SDS011;11648;49.306;6.934;2022-11-15T13:35:23;2.67;;;1.20;;
22963;SDS011;11648;49.306;6.934;2022-11-15T13:37:54;2.80;;;1.77;;
22963;SDS011;11648;49.306;6.934;2022-11-15T13:42:57;3.77;;;1.57;;
22963;SDS011;11648;49.306;6.934;2022-11-15T13:45:24;6.70;;;6.10;;
22963;SDS011;11648;49.306;6.934;2022-11-15T13:47:53;11.23;;;7.87;;
22963;SDS011;11648;49.306;6.934;2022-11-15T13:50:29;21.70;;;18.77;;
22963;SDS011;11648;49.306;6.934;2022-11-15T13:53:01;7.40;;;5.50;;
22963;SDS011;11648;49.306;6.934;2022-11-15T13:55:30;23.03;;;16.87;;
22963;SDS011;11648;49.306;6.934;2022-11-15T13:58:00;5.23;;;3.53;;
22963;SDS011;11648;49.306;6.934;2022-11-15T14:08:33;7.57;;;4.47;;
22963;SDS011;11648;49.306;6.934;2022-11-15T14:13:38;2.97;;;1.57;;
22963;SDS011;11648;49.306;6.934;2022-11-15T14:16:15;9.93;;;7.10;;
22963;SDS011;11648;49.306;6.934;2022-11-15T14:18:46;4.67;;;3.13;;
22963;SDS011;11648;49.306;6.934;2022-11-15T14:21:16;11.87;;;9.00;;
22963;SDS011;11648;49.306;6.934;2022-11-15T14:23:43;7.70;;;5.17;;
22963;SDS011;11648;49.306;6.934;2022-11-15T14:26:24;6.90;;;5.33;;
22963;SDS011;11648;49.306;6.934;2022-11-15T14:28:53;18.37;;;14.53;;
22963;SDS011;11648;49.306;6.934;2022-11-15T14:31:20;29.67;;;24.70;;
22963;SDS011;11648;49.306;6.934;2022-11-15T14:33:47;21.43;;;17.33;;
22963;SDS011;11648;49.306;6.934;2022-11-15T14:36:15;7.37;;;6.10;;
22963;SDS011;11648;49.306;6.934;2022-11-15T14:38:42;8.53;;;5.57;;
22963;SDS011;11648;49.306;6.934;2022-11-15T14:41:13;6.33;;;5.13;;
22963;SDS011;11648;49.306;6.934;2022-11-15T14:43:44;4.67;;;3.10;;
22963;SDS011;11648;49.306;6.934;2022-11-15T14:46:11;5.40;;;4.90;;
22963;SDS011;11648;49.306;6.934;2022-11-15T14:48:38;5.27;;;2.30;;
22963;SDS011;11648;49.306;6.934;2022-11-15T14:51:09;3.67;;;2.13;;
22963;SDS011;11648;49.306;6.934;2022-11-15T14:53:41;4.10;;;3.70;;
22963;SDS011;11648;49.306;6.934;2022-11-15T14:56:08;3.47;;;2.40;;
22963;SDS011;11648;49.306;6.934;2022-11-15T14:58:36;3.90;;;2.70;;
22963;SDS011;11648;49.306;6.934;2022-11-15T15:01:08;4.43;;;2.60;;
22963;SDS011;11648;49.306;6.934;2022-11-15T15:03:39;4.03;;;3.37;;
22963;SDS011;11648;49.306;6.934;2022-11-15T15:06:06;3.60;;;2.00;;
22963;SDS011;11648;49.306;6.934;2022-11-15T15:08:41;4.67;;;3.20;;
22963;SDS011;11648;49.306;6.934;2022-11-15T15:14:04;4.57;;;3.77;;
22963;SDS011;11648;49.306;6.934;2022-11-15T15:16:31;10.90;;;9.90;;
22963;SDS011;11648;49.306;6.934;2022-11-15T15:18:58;5.90;;;5.10;;
22963;SDS011;11648;49.306;6.934;2022-11-15T15:21:25;8.47;;;7.20;;
22963;SDS011;11648;49.306;6.934;2022-11-15T15:24:02;9.47;;;4.80;;
22963;SDS011;11648;49.306;6.934;2022-11-15T15:26:29;7.63;;;5.30;;
22963;SDS011;11648;49.306;6.934;2022-11-15T15:28:56;6.50;;;4.47;;
22963;SDS011;11648;49.306;6.934;2022-11-15T15:31:23;6.07;;;4.60;;
22963;SDS011;11648;49.306;6.934;2022-11-15T15:33:49;3.27;;;2.53;;
22963;SDS011;11648;49.306;6.934;2022-11-15T15:36:17;2.90;;;2.00;;
22963;SDS011;11648;49.306;6.934;2022-11-15T15:38:44;5.20;;;2.30;;
22963;SDS011;11648;49.306;6.934;2022-11-15T15:41:13;3.20;;;1.83;;
22963;SDS011;11648;49.306;6.934;2022-11-15T15:43:41;2.50;;;1.70;;
22963;SDS011;11648;49.306;6.934;2022-11-15T15:46:09;2.80;;;1.73;;
22963;SDS011;11648;49.306;6.934;2022-11-15T15:48:38;4.40;;;2.43;;
22963;SDS011;11648;49.306;6.934;2022-11-15T15:51:06;2.53;;;1.60;;
22963;SDS011;11648;49.306;6.934;2022-11-15T15:53:44;2.87;;;1.80;;
22963;SDS011;11648;49.306;6.934;2022-11-15T15:56:10;3.17;;;2.00;;
22963;SDS011;11648;49.306;6.934;2022-11-15T15:58:37;3.23;;;2.43;;
22963;SDS011;11648;49.306;6.934;2022-11-15T16:01:04;6.33;;;3.23;;
22963;SDS011;11648;49.306;6.934;2022-11-15T16:03:31;4.97;;;3.13;;
22963;SDS011;11648;49.306;6.934;2022-11-15T16:05:57;4.20;;;2.87;;
22963;SDS011;11648;49.306;6.934;2022-11-15T16:08:24;4.00;;;2.60;;
22963;SDS011;11648;49.306;6.934;2022-11-15T16:11:08;3.73;;;2.40;;
22963;SDS011;11648;49.306;6.934;2022-11-15T16:13:35;5.27;;;2.43;;
22963;SDS011;11648;49.306;6.934;2022-11-15T16:16:02;4.20;;;1.70;;
22963;SDS011;11648;49.306;6.934;2022-11-15T16:18:29;5.10;;;1.90;;
22963;SDS011;11648;49.306;6.934;2022-11-15T16:20:56;3.90;;;2.20;;
22963;SDS011;11648;49.306;6.934;2022-11-15T16:23:23;3.20;;;1.97;;
22963;SDS011;11648;49.306;6.934;2022-11-15T16:25:52;3.37;;;2.10;;
22963;SDS011;11648;49.306;6.934;2022-11-15T16:28:26;2.80;;;2.00;;
22963;SDS011;11648;49.306;6.934;2022-11-15T16:33:37;3.63;;;2.20;;
22963;SDS011;11648;49.306;6.934;2022-11-15T16:36:05;3.90;;;2.40;;
22963;SDS011;11648;49.306;6.934;2022-11-15T16:38:33;3.40;;;2.37;;
22963;SDS011;11648;49.306;6.934;2022-11-15T16:41:00;3.33;;;2.20;;
22963;SDS011;11648;49.306;6.934;2022-11-15T16:43:27;5.43;;;2.40;;
22963;SDS011;11648;49.306;6.934;2022-11-15T16:45:54;3.67;;;2.37;;
22963;SDS011;11648;49.306;6.934;2022-11-15T16:48:24;4.70;;;2.87;;
22963;SDS011;11648;49.306;6.934;2022-11-15T16:50:56;3.70;;;2.87;;
22963;SDS011;11648;49.306;6.934;2022-11-15T16:53:24;6.40;;;2.60;;
22963;SDS011;11648;49.306;6.934;2022-11-15T16:55:52;5.17;;;4.30;;
22963;SDS011;11648;49.306;6.934;2022-11-15T16:58:19;4.37;;;3.20;;
22963;SDS011;11648;49.306;6.934;2022-11-15T17:00:53;4.33;;;2.60;;
22963;SDS011;11648;49.306;6.934;2022-11-15T17:03:22;3.60;;;2.30;;
22963;SDS011;11648;49.306;6.934;2022-11-15T17:05:50;3.60;;;2.23;;
22963;SDS011;11648;49.306;6.934;2022-11-15T17:08:16;3.50;;;2.00;;
22963;SDS011;11648;49.306;6.934;2022-11-15T17:10:46;3.43;;;2.20;;
22963;SDS011;11648;49.306;6.934;2022-11-15T17:13:12;3.63;;;2.17;;
22963;SDS011;11648;49.306;6.934;2022-11-15T17:15:40;3.37;;;2.40;;
22963;SDS011;11648;49.306;6.934;2022-11-15T17:18:09;4.70;;;2.60;;
22963;SDS011;11648;49.306;6.934;2022-11-15T17:20:37;4.20;;;2.70;;
22963;SDS011;11648;49.306;6.934;2022-11-15T17:23:07;7.93;;;6.23;;
22963;SDS011;11648;49.306;6.934;2022-11-15T17:25:39;8.53;;;5.47;;
22963;SDS011;11648;49.306;6.934;2022-11-15T17:28:06;5.63;;;4.40;;
22963;SDS011;11648;49.306;6.934;2022-11-15T17:30:33;4.80;;;2.60;;
22963;SDS011;11648;49.306;6.934;2022-11-15T17:33:01;4.90;;;3.33;;
22963;SDS011;11648;49.306;6.934;2022-11-15T17:35:27;5.50;;;3.90;;
22963;SDS011;11648;49.306;6.934;2022-11-15T17:37:54;8.83;;;3.40;;
22963;SDS011;11648;49.306;6.934;2022-11-15T17:40:21;5.10;;;3.37;;
22963;SDS011;11648;49.306;6.934;2022-11-15T17:42:48;6.60;;;3.90;;
22963;SDS011;11648;49.306;6.934;2022-11-15T17:45:14;7.97;;;6.30;;
22963;SDS011;11648;49.306;6.934;2022-11-15T17:47:41;8.50;;;5.27;;
22963;SDS011;11648;49.306;6.934;2022-11-15T17:50:08;7.50;;;4.33;;
22963;SDS011;11648;49.306;6.934;2022-11-15T17:52:35;4.97;;;3.67;;
22963;SDS011;11648;49.306;6.934;2022-11-15T17:55:02;5.27;;;3.60;;
22963;SDS011;11648;49.306;6.934;2022-11-15T17:57:29;4.17;;;3.00;;
22963;SDS011;11648;49.306;6.934;2022-11-15T17:59:56;5.67;;;3.37;;
22963;SDS011;11648;49.306;6.934;2022-11-15T18:02:22;5.00;;;3.53;;
22963;SDS011;11648;49.306;6.934;2022-11-15T18:04:49;5.10;;;2.90;;
22963;SDS011;11648;49.306;6.934;2022-11-15T18:07:15;4.90;;;3.03;;
22963;SDS011;11648;49.306;6.934;2022-11-15T18:09:42;4.67;;;2.90;;
22963;SDS011;11648;49.306;6.934;2022-11-15T18:12:10;3.93;;;2.87;;
22963;SDS011;11648;49.306;6.934;2022-11-15T18:14:37;3.77;;;2.60;;
22963;SDS011;11648;49.306;6.934;2022-11-15T18:17:04;4.03;;;2.67;;
22963;SDS011;11648;49.306;6.934;2022-11-15T18:19:31;4.87;;;3.20;;
22963;SDS011;11648;49.306;6.934;2022-11-15T18:21:58;4.53;;;2.73;;
22963;SDS011;11648;49.306;6.934;2022-11-15T18:24:28;3.70;;;2.77;;
22963;SDS011;11648;49.306;6.934;2022-11-15T18:26:56;4.67;;;2.57;;
22963;SDS011;11648;49.306;6.934;2022-11-15T18:29:24;5.13;;;3.20;;
22963;SDS011;11648;49.306;6.934;2022-11-15T18:31:51;6.10;;;3.40;;
22963;SDS011;11648;49.306;6.934;2022-11-15T18:34:22;9.23;;;4.03;;